sensor_id;sensor_type;location;lat;lon;timestamp;P1;durP1;ratioP1;P2;durP2;ratioP2
7719;SDS011;3902;49.474;8.616;2022-10-16T00:01:45;1.70;;;1.50;;
7719;SDS011;3902;49.474;8.616;2022-10-16T00:04:11;2.10;;;1.50;;
7719;SDS011;3902;49.474;8.616;2022-10-16T00:06:37;1.70;;;1.53;;
7719;SDS011;3902;49.474;8.616;2022-10-16T00:09:03;1.40;;;1.30;;
7719;SDS011;3902;49.474;8.616;2022-10-16T00:11:32;2.30;;;1.33;;
7719;SDS011;3902;49.474;8.616;2022-10-16T00:14:02;1.77;;;1.40;;
7719;SDS011;3902;49.474;8.616;2022-10-16T00:16:29;2.90;;;1.57;;
7719;SDS011;3902;49.474;8.616;2022-10-16T00:18:55;1.50;;;1.40;;
7719;SDS011;3902;49.474;8.616;2022-10-16T00:21:21;1.70;;;1.60;;
7719;SDS011;3902;49.474;8.616;2022-10-16T00:23:52;1.70;;;1.50;;
7719;SDS011;3902;49.474;8.616;2022-10-16T00:26:20;1.67;;;1.47;;
7719;SDS011;3902;49.474;8.616;2022-10-16T00:28:46;4.77;;;1.50;;
7719;SDS011;3902;49.474;8.616;2022-10-16T00:31:13;2.60;;;1.47;;
7719;SDS011;3902;49.474;8.616;2022-10-16T00:33:39;1.47;;;1.37;;
7719;SDS011;3902;49.474;8.616;2022-10-16T00:36:06;2.57;;;1.50;;
7719;SDS011;3902;49.474;8.616;2022-10-16T00:38:32;1.40;;;1.30;;
7719;SDS011;3902;49.474;8.616;2022-10-16T00:40:58;1.97;;;1.40;;
7719;SDS011;3902;49.474;8.616;2022-10-16T00:46:23;1.50;;;1.40;;
7719;SDS011;3902;49.474;8.616;2022-10-16T00:54:19;1.53;;;1.40;;
7719;SDS011;3902;49.474;8.616;2022-10-16T00:56:47;1.40;;;1.30;;
7719;SDS011;3902;49.474;8.616;2022-10-16T00:59:15;2.70;;;1.40;;
7719;SDS011;3902;49.474;8.616;2022-10-16T01:01:45;1.40;;;1.30;;
7719;SDS011;3902;49.474;8.616;2022-10-16T01:04:10;1.63;;;1.27;;
7719;SDS011;3902;49.474;8.616;2022-10-16T01:07:20;3.17;;;1.50;;
7719;SDS011;3902;49.474;8.616;2022-10-16T01:09:57;1.93;;;1.73;;
7719;SDS011;3902;49.474;8.616;2022-10-16T01:12:44;1.90;;;1.60;;
7719;SDS011;3902;49.474;8.616;2022-10-16T01:15:17;1.43;;;1.17;;
7719;SDS011;3902;49.474;8.616;2022-10-16T01:18:24;1.33;;;1.23;;
7719;SDS011;3902;49.474;8.616;2022-10-16T01:20:59;1.97;;;1.20;;
7719;SDS011;3902;49.474;8.616;2022-10-16T01:29:02;1.40;;;1.30;;
7719;SDS011;3902;49.474;8.616;2022-10-16T01:31:34;2.60;;;1.23;;
7719;SDS011;3902;49.474;8.616;2022-10-16T01:34:14;1.67;;;1.50;;
7719;SDS011;3902;49.474;8.616;2022-10-16T01:36:47;1.57;;;1.40;;
7719;SDS011;3902;49.474;8.616;2022-10-16T01:39:19;2.80;;;1.23;;
7719;SDS011;3902;49.474;8.616;2022-10-16T01:41:48;3.40;;;1.40;;
7719;SDS011;3902;49.474;8.616;2022-10-16T01:44:20;1.67;;;1.10;;
7719;SDS011;3902;49.474;8.616;2022-10-16T01:46:50;2.43;;;1.50;;
7719;SDS011;3902;49.474;8.616;2022-10-16T01:49:17;1.43;;;1.33;;
7719;SDS011;3902;49.474;8.616;2022-10-16T01:51:45;4.83;;;1.40;;
7719;SDS011;3902;49.474;8.616;2022-10-16T01:54:14;1.30;;;1.20;;
7719;SDS011;3902;49.474;8.616;2022-10-16T01:56:43;1.23;;;1.13;;
7719;SDS011;3902;49.474;8.616;2022-10-16T01:59:11;1.37;;;1.23;;
7719;SDS011;3902;49.474;8.616;2022-10-16T02:01:40;3.17;;;1.30;;
7719;SDS011;3902;49.474;8.616;2022-10-16T02:04:26;1.63;;;1.53;;
7719;SDS011;3902;49.474;8.616;2022-10-16T02:06:55;1.30;;;1.20;;
7719;SDS011;3902;49.474;8.616;2022-10-16T02:09:21;1.50;;;1.40;;
7719;SDS011;3902;49.474;8.616;2022-10-16T02:11:47;1.20;;;1.10;;
7719;SDS011;3902;49.474;8.616;2022-10-16T02:14:14;1.60;;;1.50;;
7719;SDS011;3902;49.474;8.616;2022-10-16T02:16:40;7.27;;;1.20;;
7719;SDS011;3902;49.474;8.616;2022-10-16T02:19:10;2.07;;;1.60;;
7719;SDS011;3902;49.474;8.616;2022-10-16T02:21:44;1.40;;;1.30;;
7719;SDS011;3902;49.474;8.616;2022-10-16T02:27:11;1.50;;;1.40;;
7719;SDS011;3902;49.474;8.616;2022-10-16T02:30:06;2.23;;;1.47;;
7719;SDS011;3902;49.474;8.616;2022-10-16T02:32:39;1.40;;;1.30;;
7719;SDS011;3902;49.474;8.616;2022-10-16T02:35:07;3.00;;;1.50;;
7719;SDS011;3902;49.474;8.616;2022-10-16T02:37:34;1.70;;;1.13;;
7719;SDS011;3902;49.474;8.616;2022-10-16T02:40:00;8.90;;;1.40;;
7719;SDS011;3902;49.474;8.616;2022-10-16T02:42:37;5.17;;;1.63;;
7719;SDS011;3902;49.474;8.616;2022-10-16T02:45:05;1.57;;;1.40;;
7719;SDS011;3902;49.474;8.616;2022-10-16T02:47:32;2.03;;;1.70;;
7719;SDS011;3902;49.474;8.616;2022-10-16T02:49:57;1.43;;;1.20;;
7719;SDS011;3902;49.474;8.616;2022-10-16T02:52:23;1.50;;;1.40;;
7719;SDS011;3902;49.474;8.616;2022-10-16T02:54:48;1.60;;;1.50;;
7719;SDS011;3902;49.474;8.616;2022-10-16T02:57:14;1.93;;;1.43;;
7719;SDS011;3902;49.474;8.616;2022-10-16T02:59:39;1.73;;;1.43;;
7719;SDS011;3902;49.474;8.616;2022-10-16T03:02:05;1.63;;;1.53;;
7719;SDS011;3902;49.474;8.616;2022-10-16T03:04:31;1.73;;;1.63;;
7719;SDS011;3902;49.474;8.616;2022-10-16T03:06:56;1.40;;;1.20;;
7719;SDS011;3902;49.474;8.616;2022-10-16T03:09:22;1.30;;;1.20;;
7719;SDS011;3902;49.474;8.616;2022-10-16T03:11:47;2.80;;;1.60;;
7719;SDS011;3902;49.474;8.616;2022-10-16T03:14:12;2.00;;;1.60;;
7719;SDS011;3902;49.474;8.616;2022-10-16T03:16:38;2.60;;;1.40;;
7719;SDS011;3902;49.474;8.616;2022-10-16T03:19:03;1.57;;;1.47;;
7719;SDS011;3902;49.474;8.616;2022-10-16T03:21:29;3.93;;;1.50;;
7719;SDS011;3902;49.474;8.616;2022-10-16T03:23:54;1.93;;;1.33;;
7719;SDS011;3902;49.474;8.616;2022-10-16T03:26:20;1.43;;;1.33;;
7719;SDS011;3902;49.474;8.616;2022-10-16T03:28:45;1.70;;;1.60;;
7719;SDS011;3902;49.474;8.616;2022-10-16T03:31:12;2.00;;;1.67;;
7719;SDS011;3902;49.474;8.616;2022-10-16T03:33:37;2.07;;;1.57;;
7719;SDS011;3902;49.474;8.616;2022-10-16T03:36:03;1.60;;;1.30;;
7719;SDS011;3902;49.474;8.616;2022-10-16T03:38:29;2.60;;;1.53;;
7719;SDS011;3902;49.474;8.616;2022-10-16T03:40:54;1.40;;;1.30;;
7719;SDS011;3902;49.474;8.616;2022-10-16T03:43:20;2.53;;;1.50;;
7719;SDS011;3902;49.474;8.616;2022-10-16T03:45:45;1.40;;;1.30;;
7719;SDS011;3902;49.474;8.616;2022-10-16T03:48:11;1.50;;;1.40;;
7719;SDS011;3902;49.474;8.616;2022-10-16T03:50:36;1.77;;;1.67;;
7719;SDS011;3902;49.474;8.616;2022-10-16T03:53:02;1.67;;;1.50;;
7719;SDS011;3902;49.474;8.616;2022-10-16T03:55:28;1.43;;;1.20;;
7719;SDS011;3902;49.474;8.616;2022-10-16T03:57:54;2.27;;;1.30;;
7719;SDS011;3902;49.474;8.616;2022-10-16T04:00:19;1.50;;;1.40;;
7719;SDS011;3902;49.474;8.616;2022-10-16T04:02:45;1.93;;;1.50;;
7719;SDS011;3902;49.474;8.616;2022-10-16T04:05:10;1.33;;;1.23;;
7719;SDS011;3902;49.474;8.616;2022-10-16T04:07:36;1.87;;;1.50;;
7719;SDS011;3902;49.474;8.616;2022-10-16T04:10:01;1.23;;;1.13;;
7719;SDS011;3902;49.474;8.616;2022-10-16T04:12:27;2.17;;;1.17;;
7719;SDS011;3902;49.474;8.616;2022-10-16T04:14:53;2.90;;;1.33;;
7719;SDS011;3902;49.474;8.616;2022-10-16T04:17:18;2.00;;;1.47;;
7719;SDS011;3902;49.474;8.616;2022-10-16T04:19:44;1.40;;;1.30;;
7719;SDS011;3902;49.474;8.616;2022-10-16T04:22:10;1.87;;;1.70;;
7719;SDS011;3902;49.474;8.616;2022-10-16T04:24:35;1.40;;;1.30;;
7719;SDS011;3902;49.474;8.616;2022-10-16T04:27:00;2.33;;;1.53;;
7719;SDS011;3902;49.474;8.616;2022-10-16T04:29:26;1.07;;;1.00;;
7719;SDS011;3902;49.474;8.616;2022-10-16T04:31:51;2.17;;;1.30;;
7719;SDS011;3902;49.474;8.616;2022-10-16T04:34:17;1.20;;;1.10;;
7719;SDS011;3902;49.474;8.616;2022-10-16T04:36:42;2.13;;;1.40;;
7719;SDS011;3902;49.474;8.616;2022-10-16T04:39:08;1.53;;;1.13;;
7719;SDS011;3902;49.474;8.616;2022-10-16T04:41:33;1.93;;;1.50;;
7719;SDS011;3902;49.474;8.616;2022-10-16T04:43:59;1.40;;;1.30;;
7719;SDS011;3902;49.474;8.616;2022-10-16T04:46:24;1.20;;;1.10;;
7719;SDS011;3902;49.474;8.616;2022-10-16T04:48:50;1.70;;;1.40;;
7719;SDS011;3902;49.474;8.616;2022-10-16T04:51:15;1.87;;;1.37;;
7719;SDS011;3902;49.474;8.616;2022-10-16T04:53:41;1.50;;;1.40;;
7719;SDS011;3902;49.474;8.616;2022-10-16T04:56:06;2.00;;;1.23;;
7719;SDS011;3902;49.474;8.616;2022-10-16T04:58:32;2.70;;;1.40;;
7719;SDS011;3902;49.474;8.616;2022-10-16T05:00:58;1.47;;;1.37;;
7719;SDS011;3902;49.474;8.616;2022-10-16T05:03:23;1.70;;;1.60;;
7719;SDS011;3902;49.474;8.616;2022-10-16T05:05:49;1.50;;;1.40;;
7719;SDS011;3902;49.474;8.616;2022-10-16T05:08:14;4.37;;;1.43;;
7719;SDS011;3902;49.474;8.616;2022-10-16T05:10:41;2.43;;;1.60;;
7719;SDS011;3902;49.474;8.616;2022-10-16T05:13:07;1.80;;;1.67;;
7719;SDS011;3902;49.474;8.616;2022-10-16T05:15:33;1.63;;;1.53;;
7719;SDS011;3902;49.474;8.616;2022-10-16T05:17:59;2.50;;;1.60;;
7719;SDS011;3902;49.474;8.616;2022-10-16T05:20:24;1.53;;;1.43;;
7719;SDS011;3902;49.474;8.616;2022-10-16T05:22:50;2.13;;;1.80;;
7719;SDS011;3902;49.474;8.616;2022-10-16T05:25:15;2.13;;;1.70;;
7719;SDS011;3902;49.474;8.616;2022-10-16T05:27:41;2.07;;;1.87;;
7719;SDS011;3902;49.474;8.616;2022-10-16T05:30:07;1.60;;;1.50;;
7719;SDS011;3902;49.474;8.616;2022-10-16T05:32:32;1.70;;;1.60;;
7719;SDS011;3902;49.474;8.616;2022-10-16T05:34:58;1.73;;;1.63;;
7719;SDS011;3902;49.474;8.616;2022-10-16T05:37:25;1.60;;;1.50;;
7719;SDS011;3902;49.474;8.616;2022-10-16T05:39:52;1.90;;;1.63;;
7719;SDS011;3902;49.474;8.616;2022-10-16T05:42:17;1.67;;;1.57;;
7719;SDS011;3902;49.474;8.616;2022-10-16T05:44:43;1.70;;;1.60;;
7719;SDS011;3902;49.474;8.616;2022-10-16T05:47:09;2.97;;;1.90;;
7719;SDS011;3902;49.474;8.616;2022-10-16T05:49:35;2.93;;;1.80;;
7719;SDS011;3902;49.474;8.616;2022-10-16T05:52:01;1.87;;;1.60;;
7719;SDS011;3902;49.474;8.616;2022-10-16T05:54:26;1.90;;;1.63;;
7719;SDS011;3902;49.474;8.616;2022-10-16T05:56:52;1.40;;;1.20;;
7719;SDS011;3902;49.474;8.616;2022-10-16T05:59:17;1.50;;;1.40;;
7719;SDS011;3902;49.474;8.616;2022-10-16T06:01:43;3.60;;;1.80;;
7719;SDS011;3902;49.474;8.616;2022-10-16T06:04:08;2.37;;;1.40;;
7719;SDS011;3902;49.474;8.616;2022-10-16T06:06:34;3.40;;;1.50;;
7719;SDS011;3902;49.474;8.616;2022-10-16T06:09:01;2.50;;;1.47;;
7719;SDS011;3902;49.474;8.616;2022-10-16T06:11:28;1.77;;;1.50;;
7719;SDS011;3902;49.474;8.616;2022-10-16T06:13:56;1.70;;;1.60;;
7719;SDS011;3902;49.474;8.616;2022-10-16T06:16:25;1.93;;;1.60;;
7719;SDS011;3902;49.474;8.616;2022-10-16T06:18:52;1.83;;;1.40;;
7719;SDS011;3902;49.474;8.616;2022-10-16T06:21:19;2.07;;;1.70;;
7719;SDS011;3902;49.474;8.616;2022-10-16T06:23:47;2.33;;;1.53;;
7719;SDS011;3902;49.474;8.616;2022-10-16T06:26:14;1.50;;;1.40;;
7719;SDS011;3902;49.474;8.616;2022-10-16T06:28:41;3.90;;;1.37;;
7719;SDS011;3902;49.474;8.616;2022-10-16T06:31:07;1.37;;;1.27;;
7719;SDS011;3902;49.474;8.616;2022-10-16T06:33:34;1.43;;;1.33;;
7719;SDS011;3902;49.474;8.616;2022-10-16T06:36:00;2.23;;;1.40;;
7719;SDS011;3902;49.474;8.616;2022-10-16T06:38:31;1.47;;;1.37;;
7719;SDS011;3902;49.474;8.616;2022-10-16T06:40:57;1.83;;;1.47;;
7719;SDS011;3902;49.474;8.616;2022-10-16T06:43:23;2.20;;;1.20;;
7719;SDS011;3902;49.474;8.616;2022-10-16T06:45:55;1.60;;;1.50;;
7719;SDS011;3902;49.474;8.616;2022-10-16T06:48:21;1.60;;;1.50;;
7719;SDS011;3902;49.474;8.616;2022-10-16T06:50:58;1.50;;;1.40;;
7719;SDS011;3902;49.474;8.616;2022-10-16T06:53:24;2.07;;;1.70;;
7719;SDS011;3902;49.474;8.616;2022-10-16T06:55:50;1.43;;;1.33;;
7719;SDS011;3902;49.474;8.616;2022-10-16T06:58:16;1.63;;;1.40;;
7719;SDS011;3902;49.474;8.616;2022-10-16T07:00:41;1.43;;;1.33;;
7719;SDS011;3902;49.474;8.616;2022-10-16T07:03:07;4.63;;;1.43;;
7719;SDS011;3902;49.474;8.616;2022-10-16T07:05:36;2.93;;;1.87;;
7719;SDS011;3902;49.474;8.616;2022-10-16T07:08:03;1.63;;;1.43;;
7719;SDS011;3902;49.474;8.616;2022-10-16T07:10:30;2.13;;;1.27;;
7719;SDS011;3902;49.474;8.616;2022-10-16T07:12:56;1.60;;;1.50;;
7719;SDS011;3902;49.474;8.616;2022-10-16T07:15:21;3.93;;;1.37;;
7719;SDS011;3902;49.474;8.616;2022-10-16T07:17:47;1.83;;;1.30;;
7719;SDS011;3902;49.474;8.616;2022-10-16T07:20:12;1.70;;;1.33;;
7719;SDS011;3902;49.474;8.616;2022-10-16T07:22:38;1.50;;;1.40;;
7719;SDS011;3902;49.474;8.616;2022-10-16T07:25:04;1.73;;;1.53;;
7719;SDS011;3902;49.474;8.616;2022-10-16T07:27:29;1.47;;;1.37;;
7719;SDS011;3902;49.474;8.616;2022-10-16T07:29:55;1.23;;;1.13;;
7719;SDS011;3902;49.474;8.616;2022-10-16T07:32:20;3.40;;;1.70;;
7719;SDS011;3902;49.474;8.616;2022-10-16T07:34:46;1.60;;;1.50;;
7719;SDS011;3902;49.474;8.616;2022-10-16T07:37:11;1.50;;;1.40;;
7719;SDS011;3902;49.474;8.616;2022-10-16T07:39:37;2.30;;;1.70;;
7719;SDS011;3902;49.474;8.616;2022-10-16T07:42:02;2.40;;;1.67;;
7719;SDS011;3902;49.474;8.616;2022-10-16T07:44:28;12.00;;;2.10;;
7719;SDS011;3902;49.474;8.616;2022-10-16T07:46:53;1.70;;;1.60;;
7719;SDS011;3902;49.474;8.616;2022-10-16T07:49:19;1.60;;;1.50;;
7719;SDS011;3902;49.474;8.616;2022-10-16T07:51:44;1.60;;;1.50;;
7719;SDS011;3902;49.474;8.616;2022-10-16T07:54:10;1.53;;;1.43;;
7719;SDS011;3902;49.474;8.616;2022-10-16T07:56:35;2.43;;;1.37;;
7719;SDS011;3902;49.474;8.616;2022-10-16T07:59:01;1.70;;;1.50;;
7719;SDS011;3902;49.474;8.616;2022-10-16T08:01:26;2.20;;;1.80;;
7719;SDS011;3902;49.474;8.616;2022-10-16T08:03:52;2.00;;;1.70;;
7719;SDS011;3902;49.474;8.616;2022-10-16T08:06:19;1.70;;;1.60;;
7719;SDS011;3902;49.474;8.616;2022-10-16T08:08:46;2.13;;;1.70;;
7719;SDS011;3902;49.474;8.616;2022-10-16T08:11:12;2.57;;;1.60;;
7719;SDS011;3902;49.474;8.616;2022-10-16T08:13:39;3.50;;;1.60;;
7719;SDS011;3902;49.474;8.616;2022-10-16T08:16:04;1.87;;;1.40;;
7719;SDS011;3902;49.474;8.616;2022-10-16T08:18:32;3.27;;;1.60;;
7719;SDS011;3902;49.474;8.616;2022-10-16T08:21:00;1.60;;;1.50;;
7719;SDS011;3902;49.474;8.616;2022-10-16T08:23:27;1.97;;;1.77;;
7719;SDS011;3902;49.474;8.616;2022-10-16T08:25:53;1.60;;;1.50;;
7719;SDS011;3902;49.474;8.616;2022-10-16T08:28:19;1.53;;;1.30;;
7719;SDS011;3902;49.474;8.616;2022-10-16T08:30:45;1.60;;;1.17;;
7719;SDS011;3902;49.474;8.616;2022-10-16T08:33:11;1.40;;;1.30;;
7719;SDS011;3902;49.474;8.616;2022-10-16T08:35:36;1.40;;;1.20;;
7719;SDS011;3902;49.474;8.616;2022-10-16T08:38:05;1.50;;;1.40;;
7719;SDS011;3902;49.474;8.616;2022-10-16T08:40:32;1.63;;;1.53;;
7719;SDS011;3902;49.474;8.616;2022-10-16T08:45:43;1.50;;;1.40;;
7719;SDS011;3902;49.474;8.616;2022-10-16T08:51:18;1.40;;;1.30;;
7719;SDS011;3902;49.474;8.616;2022-10-16T08:53:50;1.77;;;1.33;;
7719;SDS011;3902;49.474;8.616;2022-10-16T08:56:22;5.37;;;2.27;;
7719;SDS011;3902;49.474;8.616;2022-10-16T08:58:49;2.23;;;1.50;;
7719;SDS011;3902;49.474;8.616;2022-10-16T09:01:17;2.03;;;1.63;;
7719;SDS011;3902;49.474;8.616;2022-10-16T09:12:03;2.90;;;2.10;;
7719;SDS011;3902;49.474;8.616;2022-10-16T09:15:11;5.57;;;1.90;;
7719;SDS011;3902;49.474;8.616;2022-10-16T09:17:49;7.23;;;1.90;;
7719;SDS011;3902;49.474;8.616;2022-10-16T09:20:42;3.20;;;1.80;;
7719;SDS011;3902;49.474;8.616;2022-10-16T09:23:19;1.60;;;1.50;;
7719;SDS011;3902;49.474;8.616;2022-10-16T09:25:52;2.77;;;1.60;;
7719;SDS011;3902;49.474;8.616;2022-10-16T09:28:19;1.67;;;1.57;;
7719;SDS011;3902;49.474;8.616;2022-10-16T09:30:45;2.10;;;1.60;;
7719;SDS011;3902;49.474;8.616;2022-10-16T09:33:13;1.63;;;1.53;;
7719;SDS011;3902;49.474;8.616;2022-10-16T09:35:40;2.00;;;1.80;;
7719;SDS011;3902;49.474;8.616;2022-10-16T09:38:08;1.90;;;1.77;;
7719;SDS011;3902;49.474;8.616;2022-10-16T09:40:37;1.60;;;1.50;;
7719;SDS011;3902;49.474;8.616;2022-10-16T09:43:23;4.40;;;1.60;;
7719;SDS011;3902;49.474;8.616;2022-10-16T09:46:09;1.70;;;1.60;;
7719;SDS011;3902;49.474;8.616;2022-10-16T09:48:48;2.87;;;1.60;;
7719;SDS011;3902;49.474;8.616;2022-10-16T09:51:18;3.70;;;1.53;;
7719;SDS011;3902;49.474;8.616;2022-10-16T09:53:46;2.80;;;2.33;;
7719;SDS011;3902;49.474;8.616;2022-10-16T09:56:20;2.07;;;1.67;;
7719;SDS011;3902;49.474;8.616;2022-10-16T09:58:55;2.17;;;1.90;;
7719;SDS011;3902;49.474;8.616;2022-10-16T10:01:36;1.90;;;1.70;;
7719;SDS011;3902;49.474;8.616;2022-10-16T10:04:09;1.77;;;1.67;;
7719;SDS011;3902;49.474;8.616;2022-10-16T10:06:36;3.07;;;1.50;;
7719;SDS011;3902;49.474;8.616;2022-10-16T10:16:46;3.93;;;1.63;;
7719;SDS011;3902;49.474;8.616;2022-10-16T10:19:14;2.60;;;1.50;;
7719;SDS011;3902;49.474;8.616;2022-10-16T10:21:41;1.87;;;1.77;;
7719;SDS011;3902;49.474;8.616;2022-10-16T10:24:11;1.67;;;1.53;;
7719;SDS011;3902;49.474;8.616;2022-10-16T10:26:37;4.73;;;1.80;;
7719;SDS011;3902;49.474;8.616;2022-10-16T10:34:40;1.97;;;1.63;;
7719;SDS011;3902;49.474;8.616;2022-10-16T10:42:48;1.73;;;1.60;;
7719;SDS011;3902;49.474;8.616;2022-10-16T10:45:24;2.87;;;1.90;;
7719;SDS011;3902;49.474;8.616;2022-10-16T10:48:10;2.00;;;1.77;;
7719;SDS011;3902;49.474;8.616;2022-10-16T10:50:49;8.43;;;1.77;;
7719;SDS011;3902;49.474;8.616;2022-10-16T10:59:22;2.23;;;1.80;;
7719;SDS011;3902;49.474;8.616;2022-10-16T11:02:26;3.43;;;1.70;;
7719;SDS011;3902;49.474;8.616;2022-10-16T11:08:02;1.80;;;1.47;;
7719;SDS011;3902;49.474;8.616;2022-10-16T11:16:50;1.80;;;1.70;;
7719;SDS011;3902;49.474;8.616;2022-10-16T11:22:23;1.77;;;1.60;;
7719;SDS011;3902;49.474;8.616;2022-10-16T11:36:00;3.75;;;1.40;;
7719;SDS011;3902;49.474;8.616;2022-10-16T11:38:48;9.23;;;1.50;;
7719;SDS011;3902;49.474;8.616;2022-10-16T11:41:33;2.40;;;1.80;;
7719;SDS011;3902;49.474;8.616;2022-10-16T11:44:27;1.77;;;1.30;;
7719;SDS011;3902;49.474;8.616;2022-10-16T11:47:03;2.35;;;1.30;;
7719;SDS011;3902;49.474;8.616;2022-10-16T11:49:50;1.40;;;1.30;;
7719;SDS011;3902;49.474;8.616;2022-10-16T11:55:43;2.13;;;1.40;;
7719;SDS011;3902;49.474;8.616;2022-10-16T11:58:13;1.88;;;1.60;;
7719;SDS011;3902;49.474;8.616;2022-10-16T12:00:55;1.90;;;1.50;;
7719;SDS011;3902;49.474;8.616;2022-10-16T12:06:40;1.70;;;1.60;;
7719;SDS011;3902;49.474;8.616;2022-10-16T12:09:30;1.50;;;1.40;;
7719;SDS011;3902;49.474;8.616;2022-10-16T12:11:57;1.87;;;1.63;;
7719;SDS011;3902;49.474;8.616;2022-10-16T12:17:03;3.50;;;1.90;;
7719;SDS011;3902;49.474;8.616;2022-10-16T12:19:57;1.90;;;1.80;;
7719;SDS011;3902;49.474;8.616;2022-10-16T12:22:26;1.80;;;1.70;;
7719;SDS011;3902;49.474;8.616;2022-10-16T12:24:55;1.90;;;1.80;;
7719;SDS011;3902;49.474;8.616;2022-10-16T12:27:27;1.90;;;1.43;;
7719;SDS011;3902;49.474;8.616;2022-10-16T12:29:55;1.77;;;1.67;;
7719;SDS011;3902;49.474;8.616;2022-10-16T12:34:59;2.60;;;2.00;;
7719;SDS011;3902;49.474;8.616;2022-10-16T12:37:28;1.83;;;1.73;;
7719;SDS011;3902;49.474;8.616;2022-10-16T12:40:10;2.27;;;1.60;;
7719;SDS011;3902;49.474;8.616;2022-10-16T12:42:41;1.80;;;1.70;;
7719;SDS011;3902;49.474;8.616;2022-10-16T12:45:27;1.90;;;1.80;;
7719;SDS011;3902;49.474;8.616;2022-10-16T12:47:58;2.63;;;1.90;;
7719;SDS011;3902;49.474;8.616;2022-10-16T12:53:02;2.07;;;1.87;;
7719;SDS011;3902;49.474;8.616;2022-10-16T12:55:52;3.20;;;2.10;;
7719;SDS011;3902;49.474;8.616;2022-10-16T12:58:43;1.80;;;1.70;;
7719;SDS011;3902;49.474;8.616;2022-10-16T13:01:20;1.87;;;1.77;;
7719;SDS011;3902;49.474;8.616;2022-10-16T13:04:28;2.20;;;2.00;;
7719;SDS011;3902;49.474;8.616;2022-10-16T13:07:15;2.20;;;2.00;;
7719;SDS011;3902;49.474;8.616;2022-10-16T13:21:27;1.83;;;1.73;;
7719;SDS011;3902;49.474;8.616;2022-10-16T13:26:57;2.03;;;1.67;;
7719;SDS011;3902;49.474;8.616;2022-10-16T13:29:34;2.70;;;1.60;;
7719;SDS011;3902;49.474;8.616;2022-10-16T13:32:00;2.40;;;2.00;;
7719;SDS011;3902;49.474;8.616;2022-10-16T13:34:32;1.50;;;1.40;;
7719;SDS011;3902;49.474;8.616;2022-10-16T13:36:57;1.90;;;1.70;;
7719;SDS011;3902;49.474;8.616;2022-10-16T13:39:24;2.30;;;1.80;;
7719;SDS011;3902;49.474;8.616;2022-10-16T13:42:27;1.60;;;1.50;;
7719;SDS011;3902;49.474;8.616;2022-10-16T13:44:48;2.50;;;1.90;;
7719;SDS011;3902;49.474;8.616;2022-10-16T13:49:46;1.50;;;1.40;;
7719;SDS011;3902;49.474;8.616;2022-10-16T13:52:23;1.80;;;1.70;;
7719;SDS011;3902;49.474;8.616;2022-10-16T13:54:48;1.70;;;1.60;;
7719;SDS011;3902;49.474;8.616;2022-10-16T13:57:14;2.27;;;1.67;;
7719;SDS011;3902;49.474;8.616;2022-10-16T13:59:41;2.07;;;1.87;;
7719;SDS011;3902;49.474;8.616;2022-10-16T14:02:18;1.43;;;1.33;;
7719;SDS011;3902;49.474;8.616;2022-10-16T14:04:50;1.77;;;1.67;;
7719;SDS011;3902;49.474;8.616;2022-10-16T14:07:29;1.57;;;1.47;;
7719;SDS011;3902;49.474;8.616;2022-10-16T14:10:00;1.53;;;1.30;;
7719;SDS011;3902;49.474;8.616;2022-10-16T14:12:31;1.60;;;1.50;;
7719;SDS011;3902;49.474;8.616;2022-10-16T14:14:57;2.57;;;1.97;;
7719;SDS011;3902;49.474;8.616;2022-10-16T14:17:25;1.83;;;1.63;;
7719;SDS011;3902;49.474;8.616;2022-10-16T14:19:53;1.80;;;1.70;;
7719;SDS011;3902;49.474;8.616;2022-10-16T14:24:57;1.70;;;1.60;;
7719;SDS011;3902;49.474;8.616;2022-10-16T14:27:25;2.47;;;2.00;;
7719;SDS011;3902;49.474;8.616;2022-10-16T14:30:17;1.93;;;1.80;;
7719;SDS011;3902;49.474;8.616;2022-10-16T14:33:00;2.17;;;1.90;;
7719;SDS011;3902;49.474;8.616;2022-10-16T14:35:32;2.03;;;1.87;;
7719;SDS011;3902;49.474;8.616;2022-10-16T14:38:00;1.97;;;1.87;;
7719;SDS011;3902;49.474;8.616;2022-10-16T14:40:32;2.03;;;1.80;;
7719;SDS011;3902;49.474;8.616;2022-10-16T14:43:00;5.03;;;1.93;;
7719;SDS011;3902;49.474;8.616;2022-10-16T14:45:28;2.10;;;2.00;;
7719;SDS011;3902;49.474;8.616;2022-10-16T14:47:57;2.23;;;1.80;;
7719;SDS011;3902;49.474;8.616;2022-10-16T14:50:24;1.83;;;1.73;;
7719;SDS011;3902;49.474;8.616;2022-10-16T14:52:50;2.83;;;1.93;;
7719;SDS011;3902;49.474;8.616;2022-10-16T14:55:16;1.90;;;1.70;;
7719;SDS011;3902;49.474;8.616;2022-10-16T14:57:43;2.40;;;2.20;;
7719;SDS011;3902;49.474;8.616;2022-10-16T15:00:20;2.17;;;1.97;;
7719;SDS011;3902;49.474;8.616;2022-10-16T15:02:48;1.83;;;1.73;;
7719;SDS011;3902;49.474;8.616;2022-10-16T15:07:42;2.40;;;2.20;;
7719;SDS011;3902;49.474;8.616;2022-10-16T15:10:08;2.30;;;2.00;;
7719;SDS011;3902;49.474;8.616;2022-10-16T15:12:34;2.20;;;1.93;;
7719;SDS011;3902;49.474;8.616;2022-10-16T15:14:59;2.30;;;2.00;;
7719;SDS011;3902;49.474;8.616;2022-10-16T15:17:25;3.00;;;1.80;;
7719;SDS011;3902;49.474;8.616;2022-10-16T15:19:50;1.97;;;1.87;;
7719;SDS011;3902;49.474;8.616;2022-10-16T15:22:16;1.73;;;1.63;;
7719;SDS011;3902;49.474;8.616;2022-10-16T15:24:42;1.80;;;1.70;;
7719;SDS011;3902;49.474;8.616;2022-10-16T15:27:07;3.13;;;2.03;;
7719;SDS011;3902;49.474;8.616;2022-10-16T15:29:33;4.10;;;1.70;;
7719;SDS011;3902;49.474;8.616;2022-10-16T15:31:59;2.13;;;1.93;;
7719;SDS011;3902;49.474;8.616;2022-10-16T15:34:24;5.07;;;1.73;;
7719;SDS011;3902;49.474;8.616;2022-10-16T15:36:49;2.10;;;1.80;;
7719;SDS011;3902;49.474;8.616;2022-10-16T15:39:16;1.70;;;1.60;;
7719;SDS011;3902;49.474;8.616;2022-10-16T15:41:43;2.07;;;1.83;;
7719;SDS011;3902;49.474;8.616;2022-10-16T15:44:10;1.67;;;1.57;;
7719;SDS011;3902;49.474;8.616;2022-10-16T15:46:35;2.00;;;1.70;;
7719;SDS011;3902;49.474;8.616;2022-10-16T15:49:02;1.83;;;1.73;;
7719;SDS011;3902;49.474;8.616;2022-10-16T15:51:28;2.27;;;1.70;;
7719;SDS011;3902;49.474;8.616;2022-10-16T15:53:55;2.30;;;2.10;;
7719;SDS011;3902;49.474;8.616;2022-10-16T15:56:22;4.60;;;1.90;;
7719;SDS011;3902;49.474;8.616;2022-10-16T15:58:50;1.60;;;1.50;;
7719;SDS011;3902;49.474;8.616;2022-10-16T16:01:16;2.07;;;1.87;;
7719;SDS011;3902;49.474;8.616;2022-10-16T16:03:41;2.77;;;2.03;;
7719;SDS011;3902;49.474;8.616;2022-10-16T16:06:08;2.93;;;2.17;;
7719;SDS011;3902;49.474;8.616;2022-10-16T16:08:34;2.63;;;2.20;;
7719;SDS011;3902;49.474;8.616;2022-10-16T16:11:01;3.00;;;2.17;;
7719;SDS011;3902;49.474;8.616;2022-10-16T16:13:40;2.60;;;2.10;;
7719;SDS011;3902;49.474;8.616;2022-10-16T16:16:10;3.70;;;2.50;;
7719;SDS011;3902;49.474;8.616;2022-10-16T16:18:37;4.40;;;2.63;;
7719;SDS011;3902;49.474;8.616;2022-10-16T16:21:04;2.83;;;2.33;;
7719;SDS011;3902;49.474;8.616;2022-10-16T16:23:30;3.00;;;2.40;;
7719;SDS011;3902;49.474;8.616;2022-10-16T16:29:00;4.00;;;2.07;;
7719;SDS011;3902;49.474;8.616;2022-10-16T16:31:27;2.60;;;2.20;;
7719;SDS011;3902;49.474;8.616;2022-10-16T16:33:54;3.30;;;2.30;;
7719;SDS011;3902;49.474;8.616;2022-10-16T16:36:21;2.40;;;2.20;;
7719;SDS011;3902;49.474;8.616;2022-10-16T16:38:46;3.30;;;2.10;;
7719;SDS011;3902;49.474;8.616;2022-10-16T16:43:56;2.83;;;2.23;;
7719;SDS011;3902;49.474;8.616;2022-10-16T16:46:28;2.73;;;2.40;;
7719;SDS011;3902;49.474;8.616;2022-10-16T16:48:53;3.83;;;2.07;;
7719;SDS011;3902;49.474;8.616;2022-10-16T16:51:20;2.17;;;2.03;;
7719;SDS011;3902;49.474;8.616;2022-10-16T16:53:47;3.17;;;2.50;;
7719;SDS011;3902;49.474;8.616;2022-10-16T16:56:15;2.47;;;1.90;;
7719;SDS011;3902;49.474;8.616;2022-10-16T16:58:41;3.73;;;2.10;;
7719;SDS011;3902;49.474;8.616;2022-10-16T17:01:09;2.90;;;2.00;;
7719;SDS011;3902;49.474;8.616;2022-10-16T17:03:35;2.60;;;2.20;;
7719;SDS011;3902;49.474;8.616;2022-10-16T17:06:06;3.27;;;2.07;;
7719;SDS011;3902;49.474;8.616;2022-10-16T17:08:35;2.90;;;2.50;;
7719;SDS011;3902;49.474;8.616;2022-10-16T17:11:02;2.30;;;2.10;;
7719;SDS011;3902;49.474;8.616;2022-10-16T17:13:29;2.80;;;2.43;;
7719;SDS011;3902;49.474;8.616;2022-10-16T17:15:59;3.03;;;2.30;;
7719;SDS011;3902;49.474;8.616;2022-10-16T17:18:25;3.50;;;2.40;;
7719;SDS011;3902;49.474;8.616;2022-10-16T17:20:50;2.50;;;2.30;;
7719;SDS011;3902;49.474;8.616;2022-10-16T17:23:19;2.53;;;2.33;;
7719;SDS011;3902;49.474;8.616;2022-10-16T17:25:45;2.83;;;2.50;;
7719;SDS011;3902;49.474;8.616;2022-10-16T17:28:11;2.97;;;2.53;;
7719;SDS011;3902;49.474;8.616;2022-10-16T17:30:38;3.60;;;2.53;;